EZY57GM EGCC-ENBR
Flight info
| Callsign | EZY57GM |
|---|---|
| Flight time | N/A |
| Altitude | 37000 |
| Route | POL P17 NUKPE DCT MEJAC DCT RIGVU DCT MODNI |
| Aircraft | A320/M-SDE3FGHIRWY/LB1 |
Departure
| Time | 2026-05-04 14:13 |
|---|---|
| Airport | Manchester Airport (EGCC) |
Arrival
| Time | N/A |
|---|---|
| Airport | Bergen Airport, Flesland (ENBR) |
| Time | Latitude | Longitude | Altitude | Speed | Heading |
|---|---|---|---|---|---|
| 2026-05-04 13:33 | 53.36837 | -2.28884 | 233 ft | 0 kts | 134° |
| 2026-05-04 13:58 | 53.36842 | -2.28893 | 233 ft | 4 kts | 134° |
| 2026-05-04 13:59 | 53.36858 | -2.28919 | 234 ft | 4 kts | 153° |
| 2026-05-04 13:59 | 53.36880 | -2.28920 | 235 ft | 4 kts | 219° |
| 2026-05-04 13:59 | 53.36874 | -2.28930 | 237 ft | 0 kts | 224° |
| 2026-05-04 14:02 | 53.36867 | -2.28941 | 234 ft | 6 kts | 224° |
| 2026-05-04 14:02 | 53.36840 | -2.28986 | 233 ft | 6 kts | 224° |
| 2026-05-04 14:02 | 53.36781 | -2.29036 | 233 ft | 10 kts | 199° |
| 2026-05-04 14:03 | 53.36724 | -2.29003 | 233 ft | 8 kts | 135° |
| 2026-05-04 14:03 | 53.36687 | -2.28941 | 233 ft | 7 kts | 134° |
| 2026-05-04 14:03 | 53.36655 | -2.28902 | 233 ft | 5 kts | 162° |
| 2026-05-04 14:03 | 53.36649 | -2.28900 | 233 ft | 0 kts | 163° |
| 2026-05-04 14:04 | 53.36643 | -2.28897 | 233 ft | 3 kts | 164° |
| 2026-05-04 14:04 | 53.36625 | -2.28881 | 234 ft | 6 kts | 143° |
| 2026-05-04 14:04 | 53.36597 | -2.28829 | 233 ft | 5 kts | 120° |
| 2026-05-04 14:05 | 53.36525 | -2.28656 | 233 ft | 9 kts | 133° |
| 2026-05-04 14:05 | 53.36466 | -2.28554 | 233 ft | 14 kts | 134° |
| 2026-05-04 14:05 | 53.36393 | -2.28504 | 233 ft | 12 kts | 196° |
| 2026-05-04 14:06 | 53.36324 | -2.28470 | 233 ft | 10 kts | 137° |
| 2026-05-04 14:06 | 53.36277 | -2.28390 | 233 ft | 10 kts | 133° |
| 2026-05-04 14:06 | 53.36208 | -2.28271 | 233 ft | 15 kts | 134° |
| 2026-05-04 14:06 | 53.36133 | -2.28140 | 233 ft | 16 kts | 134° |
| 2026-05-04 14:07 | 53.36051 | -2.28000 | 233 ft | 17 kts | 135° |
| 2026-05-04 14:07 | 53.35966 | -2.27862 | 233 ft | 17 kts | 144° |
| 2026-05-04 14:07 | 53.35849 | -2.27858 | 233 ft | 18 kts | 186° |
| 2026-05-04 14:07 | 53.35723 | -2.27880 | 233 ft | 16 kts | 185° |
| 2026-05-04 14:08 | 53.35671 | -2.27887 | 233 ft | 4 kts | 185° |
| 2026-05-04 14:08 | 53.35631 | -2.27894 | 233 ft | 10 kts | 186° |
| 2026-05-04 14:08 | 53.35563 | -2.27907 | 233 ft | 13 kts | 186° |
| 2026-05-04 14:08 | 53.35467 | -2.27927 | 233 ft | 15 kts | 195° |
| 2026-05-04 14:09 | 53.35281 | -2.28206 | 233 ft | 22 kts | 224° |
| 2026-05-04 14:09 | 53.35179 | -2.28410 | 233 ft | 23 kts | 232° |
| 2026-05-04 14:10 | 53.34999 | -2.28764 | 233 ft | 18 kts | 220° |
| 2026-05-04 14:10 | 53.34913 | -2.28919 | 233 ft | 19 kts | 225° |
| 2026-05-04 14:10 | 53.34835 | -2.29058 | 233 ft | 12 kts | 227° |
| 2026-05-04 14:10 | 53.34829 | -2.29069 | 233 ft | 0 kts | 227° |
| 2026-05-04 14:11 | 53.34828 | -2.29069 | 233 ft | 0 kts | 221° |
| 2026-05-04 14:11 | 53.34745 | -2.29066 | 233 ft | 10 kts | 167° |
| 2026-05-04 14:11 | 53.34690 | -2.29020 | 235 ft | 8 kts | 141° |
| 2026-05-04 14:12 | 53.34686 | -2.28922 | 234 ft | 13 kts | 53° |
| 2026-05-04 14:12 | 53.34775 | -2.28737 | 233 ft | 43 kts | 51° |
| 2026-05-04 14:12 | 53.35745 | -2.26733 | 288 ft | 161 kts | 51° |
| 2026-05-04 14:13 | 53.36434 | -2.25331 | 919 ft | 155 kts | 51° |
| 2026-05-04 14:13 | 53.37098 | -2.23903 | 1495 ft | 161 kts | 52° |
| 2026-05-04 14:13 | 53.37831 | -2.22312 | 1796 ft | 182 kts | 52° |
| 2026-05-04 14:13 | 53.38622 | -2.20551 | 2202 ft | 197 kts | 53° |
| 2026-05-04 14:14 | 53.39489 | -2.18600 | 2553 ft | 220 kts | 52° |
| 2026-05-04 14:14 | 53.41559 | -2.14203 | 3421 ft | 264 kts | 51° |
| 2026-05-04 14:14 | 53.42733 | -2.11750 | 4215 ft | 268 kts | 51° |
| 2026-05-04 14:15 | 53.45900 | -2.09066 | 4950 ft | 266 kts | 353° |
| 2026-05-04 14:15 | 53.49546 | -2.10039 | 4998 ft | 265 kts | 351° |
| 2026-05-04 14:16 | 53.53237 | -2.10158 | 5942 ft | 270 kts | 4° |
| 2026-05-04 14:16 | 53.55122 | -2.09928 | 6800 ft | 273 kts | 2° |
| 2026-05-04 14:17 | 53.58973 | -2.09831 | 8440 ft | 280 kts | 359° |
| 2026-05-04 14:17 | 53.60936 | -2.09878 | 9259 ft | 284 kts | 358° |
| 2026-05-04 14:17 | 53.64966 | -2.10014 | 10478 ft | 305 kts | 358° |
| 2026-05-04 14:18 | 53.67168 | -2.10092 | 10683 ft | 327 kts | 358° |
| 2026-05-04 14:18 | 53.71823 | -2.10248 | 11859 ft | 343 kts | 358° |
| 2026-05-04 14:19 | 53.76606 | -2.09345 | 13260 ft | 352 kts | 14° |
| 2026-05-04 14:19 | 53.78982 | -2.08255 | 13942 ft | 356 kts | 14° |
| 2026-05-04 14:19 | 53.81383 | -2.07156 | 14594 ft | 358 kts | 14° |
| 2026-05-04 14:19 | 53.83784 | -2.06059 | 15334 ft | 357 kts | 14° |
| 2026-05-04 14:20 | 53.86178 | -2.04969 | 16084 ft | 356 kts | 14° |
| 2026-05-04 14:20 | 53.88570 | -2.03882 | 16857 ft | 355 kts | 14° |
| 2026-05-04 14:20 | 53.90943 | -2.02801 | 17650 ft | 352 kts | 14° |
| 2026-05-04 14:21 | 53.95609 | -2.00661 | 19151 ft | 346 kts | 14° |
| 2026-05-04 14:21 | 53.97921 | -1.99595 | 19881 ft | 342 kts | 14° |
| 2026-05-04 14:21 | 54.00206 | -1.98544 | 20631 ft | 338 kts | 15° |
| 2026-05-04 14:21 | 54.02457 | -1.97513 | 21396 ft | 332 kts | 15° |
| 2026-05-04 14:22 | 54.04670 | -1.96503 | 22181 ft | 327 kts | 15° |
| 2026-05-04 14:22 | 54.06844 | -1.95511 | 22982 ft | 320 kts | 15° |
| 2026-05-04 14:22 | 54.08967 | -1.94539 | 23781 ft | 312 kts | 15° |
| 2026-05-04 14:22 | 54.11029 | -1.93592 | 24480 ft | 302 kts | 16° |
| 2026-05-04 14:23 | 54.15011 | -1.91759 | 25437 ft | 300 kts | 16° |
| 2026-05-04 14:23 | 54.17031 | -1.90830 | 25828 ft | 301 kts | 16° |
| 2026-05-04 14:23 | 54.19058 | -1.89897 | 26191 ft | 304 kts | 16° |
| 2026-05-04 14:24 | 54.21142 | -1.88938 | 26316 ft | 315 kts | 16° |
| 2026-05-04 14:24 | 54.23294 | -1.87946 | 26441 ft | 326 kts | 15° |
| 2026-05-04 14:24 | 54.25524 | -1.86914 | 26582 ft | 337 kts | 15° |
| 2026-05-04 14:24 | 54.27814 | -1.85852 | 26800 ft | 344 kts | 15° |
| 2026-05-04 14:25 | 54.30121 | -1.84779 | 27267 ft | 344 kts | 16° |
| 2026-05-04 14:25 | 54.34648 | -1.82374 | 28214 ft | 342 kts | 24° |
| 2026-05-04 14:25 | 54.36812 | -1.80684 | 28711 ft | 341 kts | 25° |
| 2026-05-04 14:26 | 54.38964 | -1.78985 | 29208 ft | 340 kts | 25° |
| 2026-05-04 14:26 | 54.41109 | -1.77292 | 29719 ft | 338 kts | 25° |
| 2026-05-04 14:26 | 54.43242 | -1.75610 | 30210 ft | 336 kts | 25° |
| 2026-05-04 14:26 | 54.45359 | -1.73937 | 30640 ft | 335 kts | 25° |
| 2026-05-04 14:27 | 54.47492 | -1.72253 | 30809 ft | 341 kts | 25° |
| 2026-05-04 14:27 | 54.49666 | -1.70531 | 30939 ft | 348 kts | 25° |
| 2026-05-04 14:27 | 54.51859 | -1.68788 | 31072 ft | 356 kts | 25° |
| 2026-05-04 14:27 | 54.54130 | -1.66981 | 31197 ft | 364 kts | 25° |
| 2026-05-04 14:28 | 54.56452 | -1.65137 | 31322 ft | 372 kts | 25° |
| 2026-05-04 14:28 | 54.58823 | -1.63257 | 31455 ft | 379 kts | 25° |
| 2026-05-04 14:28 | 54.61239 | -1.61337 | 31584 ft | 386 kts | 25° |
| 2026-05-04 14:28 | 54.63696 | -1.59383 | 31715 ft | 392 kts | 25° |
| 2026-05-04 14:29 | 54.68728 | -1.55375 | 31971 ft | 404 kts | 24° |
| 2026-05-04 14:29 | 54.73909 | -1.51232 | 32231 ft | 416 kts | 24° |
| 2026-05-04 14:30 | 54.76513 | -1.49142 | 32360 ft | 421 kts | 24° |
| 2026-05-04 14:30 | 54.79185 | -1.46994 | 32492 ft | 425 kts | 24° |
| 2026-05-04 14:30 | 54.84599 | -1.42627 | 32752 ft | 433 kts | 24° |
| 2026-05-04 14:31 | 54.87343 | -1.40409 | 32913 ft | 436 kts | 24° |
| 2026-05-04 14:31 | 54.92848 | -1.35949 | 33412 ft | 437 kts | 24° |
| 2026-05-04 14:32 | 54.98360 | -1.31473 | 33932 ft | 437 kts | 24° |
| 2026-05-04 14:32 | 55.01075 | -1.29264 | 34169 ft | 437 kts | 24° |
| 2026-05-04 14:32 | 55.03830 | -1.27019 | 34385 ft | 437 kts | 24° |
| 2026-05-04 14:32 | 55.06584 | -1.24769 | 34570 ft | 438 kts | 24° |
| 2026-05-04 14:33 | 55.09346 | -1.22512 | 34774 ft | 438 kts | 24° |
| 2026-05-04 14:33 | 55.12107 | -1.20252 | 34967 ft | 439 kts | 24° |
| 2026-05-04 14:33 | 55.14875 | -1.17981 | 35161 ft | 439 kts | 24° |
| 2026-05-04 14:33 | 55.17638 | -1.15709 | 35347 ft | 440 kts | 23° |
| 2026-05-04 14:34 | 55.20410 | -1.13429 | 35522 ft | 440 kts | 24° |
| 2026-05-04 14:34 | 55.23181 | -1.11148 | 35683 ft | 441 kts | 24° |
| 2026-05-04 14:34 | 55.25924 | -1.08885 | 35842 ft | 442 kts | 24° |
| 2026-05-04 14:34 | 55.28702 | -1.06586 | 35994 ft | 442 kts | 23° |
| 2026-05-04 14:35 | 55.31492 | -1.04282 | 36152 ft | 443 kts | 23° |
| 2026-05-04 14:35 | 55.34282 | -1.01980 | 36303 ft | 444 kts | 23° |
| 2026-05-04 14:35 | 55.37077 | -0.99670 | 36458 ft | 444 kts | 23° |
| 2026-05-04 14:35 | 55.39872 | -0.97351 | 36601 ft | 444 kts | 23° |
| 2026-05-04 14:36 | 55.42670 | -0.95023 | 36746 ft | 445 kts | 23° |
| 2026-05-04 14:36 | 55.45466 | -0.92690 | 36913 ft | 445 kts | 23° |
| 2026-05-04 14:36 | 55.48267 | -0.90344 | 37017 ft | 445 kts | 23° |
| 2026-05-04 14:37 | 55.53821 | -0.85682 | 37025 ft | 445 kts | 23° |
| 2026-05-04 14:37 | 55.59418 | -0.80982 | 37027 ft | 446 kts | 23° |
| 2026-05-04 14:38 | 55.65028 | -0.76262 | 37030 ft | 446 kts | 23° |
| 2026-05-04 14:38 | 55.70637 | -0.71522 | 37027 ft | 447 kts | 23° |
| 2026-05-04 14:39 | 55.76213 | -0.66794 | 37027 ft | 447 kts | 23° |
| 2026-05-04 14:39 | 55.81826 | -0.62025 | 37030 ft | 447 kts | 23° |
| 2026-05-04 14:40 | 55.90246 | -0.54832 | 37015 ft | 448 kts | 23° |
| 2026-05-04 14:40 | 55.95822 | -0.50037 | 37026 ft | 448 kts | 23° |
| 2026-05-04 14:41 | 56.01444 | -0.45194 | 37020 ft | 449 kts | 23° |
| 2026-05-04 14:42 | 56.12715 | -0.35472 | 37030 ft | 450 kts | 23° |
| 2026-05-04 14:42 | 56.18318 | -0.30600 | 37030 ft | 451 kts | 23° |
| 2026-05-04 14:43 | 56.23958 | -0.25670 | 37033 ft | 451 kts | 23° |
| 2026-05-04 14:43 | 56.29603 | -0.20731 | 37025 ft | 451 kts | 23° |
| 2026-05-04 14:44 | 56.35253 | -0.15781 | 37029 ft | 452 kts | 23° |
| 2026-05-04 14:44 | 56.40866 | -0.10838 | 37026 ft | 452 kts | 23° |
| 2026-05-04 14:45 | 56.46515 | -0.05839 | 37025 ft | 453 kts | 23° |
| 2026-05-04 14:45 | 56.52173 | -0.00827 | 37020 ft | 453 kts | 23° |
| 2026-05-04 14:46 | 56.57840 | 0.04207 | 37022 ft | 453 kts | 23° |
| 2026-05-04 14:46 | 56.63463 | 0.09225 | 37022 ft | 454 kts | 22° |
| 2026-05-04 14:47 | 56.69134 | 0.14295 | 37019 ft | 454 kts | 22° |
| 2026-05-04 14:47 | 56.74803 | 0.19375 | 37019 ft | 455 kts | 22° |
| 2026-05-04 14:48 | 56.80481 | 0.24477 | 37022 ft | 455 kts | 22° |
| 2026-05-04 14:48 | 56.86114 | 0.29593 | 37029 ft | 456 kts | 22° |
| 2026-05-04 14:49 | 56.91795 | 0.34753 | 37028 ft | 456 kts | 22° |
| 2026-05-04 14:49 | 56.97476 | 0.39921 | 37023 ft | 456 kts | 22° |
| 2026-05-04 14:50 | 57.03163 | 0.45116 | 37028 ft | 457 kts | 22° |
| 2026-05-04 14:50 | 57.08814 | 0.50293 | 37029 ft | 457 kts | 22° |
| 2026-05-04 14:51 | 57.14508 | 0.55537 | 37028 ft | 458 kts | 22° |
| 2026-05-04 14:51 | 57.20203 | 0.60799 | 37021 ft | 458 kts | 22° |
| 2026-05-04 14:52 | 57.25902 | 0.66064 | 37016 ft | 458 kts | 22° |
| 2026-05-04 14:52 | 57.31556 | 0.71319 | 37017 ft | 458 kts | 22° |
| 2026-05-04 14:53 | 57.37248 | 0.76641 | 37012 ft | 459 kts | 22° |
| 2026-05-04 14:53 | 57.42952 | 0.81980 | 37011 ft | 459 kts | 22° |
| 2026-05-04 14:54 | 57.48653 | 0.87324 | 37011 ft | 459 kts | 22° |
| 2026-05-04 14:54 | 57.54321 | 0.92653 | 37011 ft | 460 kts | 22° |
| 2026-05-04 14:55 | 57.60022 | 0.98053 | 37011 ft | 460 kts | 22° |
| 2026-05-04 14:55 | 57.65728 | 1.03476 | 37011 ft | 460 kts | 22° |
| 2026-05-04 14:56 | 57.71428 | 1.08913 | 37006 ft | 460 kts | 22° |
| 2026-05-04 14:56 | 57.77101 | 1.14314 | 37003 ft | 461 kts | 22° |
| 2026-05-04 14:57 | 57.82804 | 1.19799 | 37002 ft | 461 kts | 22° |
| 2026-05-04 14:57 | 57.88512 | 1.25296 | 37000 ft | 461 kts | 22° |
| 2026-05-04 14:58 | 57.94217 | 1.30821 | 36997 ft | 461 kts | 22° |
| 2026-05-04 14:58 | 57.98962 | 1.35424 | 36995 ft | 462 kts | 22° |
| 2026-05-04 14:59 | 58.05599 | 1.41879 | 36990 ft | 462 kts | 22° |
| 2026-05-04 15:00 | 58.14161 | 1.50233 | 36980 ft | 462 kts | 22° |
| 2026-05-04 15:00 | 58.19865 | 1.55834 | 36975 ft | 462 kts | 22° |
| 2026-05-04 15:01 | 58.28384 | 1.64265 | 36969 ft | 462 kts | 22° |
| 2026-05-04 15:01 | 58.34089 | 1.69915 | 36964 ft | 462 kts | 21° |
| 2026-05-04 15:02 | 58.39797 | 1.75583 | 36954 ft | 463 kts | 21° |
| 2026-05-04 15:02 | 58.45502 | 1.81273 | 36955 ft | 463 kts | 21° |